sensor_id;sensor_type;location;lat;lon;timestamp;temperature;humidity
27224;DHT22;14965;50.660;13.226;2023-09-30T00:01:24;16.90;99.90
27224;DHT22;14965;50.660;13.226;2023-09-30T00:03:49;16.90;99.90
27224;DHT22;14965;50.660;13.226;2023-09-30T00:06:17;16.90;99.90
27224;DHT22;14965;50.660;13.226;2023-09-30T00:08:43;16.90;99.90
27224;DHT22;14965;50.660;13.226;2023-09-30T00:11:09;16.90;99.90
27224;DHT22;14965;50.660;13.226;2023-09-30T00:13:34;16.90;99.90
27224;DHT22;14965;50.660;13.226;2023-09-30T00:16:00;16.90;99.90
27224;DHT22;14965;50.660;13.226;2023-09-30T00:18:26;16.90;99.90
27224;DHT22;14965;50.660;13.226;2023-09-30T00:20:52;16.90;99.90
27224;DHT22;14965;50.660;13.226;2023-09-30T00:23:20;16.80;99.90
27224;DHT22;14965;50.660;13.226;2023-09-30T00:25:45;16.80;99.90
27224;DHT22;14965;50.660;13.226;2023-09-30T00:28:11;16.80;99.90
27224;DHT22;14965;50.660;13.226;2023-09-30T00:30:37;16.80;99.90
27224;DHT22;14965;50.660;13.226;2023-09-30T00:33:03;16.80;99.90
27224;DHT22;14965;50.660;13.226;2023-09-30T00:35:31;16.80;99.90
27224;DHT22;14965;50.660;13.226;2023-09-30T00:37:57;16.70;99.90
27224;DHT22;14965;50.660;13.226;2023-09-30T00:40:25;16.70;99.90
27224;DHT22;14965;50.660;13.226;2023-09-30T00:42:51;16.70;99.90
27224;DHT22;14965;50.660;13.226;2023-09-30T00:45:17;16.70;99.90
27224;DHT22;14965;50.660;13.226;2023-09-30T00:47:43;16.70;99.90
27224;DHT22;14965;50.660;13.226;2023-09-30T00:50:09;16.70;99.90
27224;DHT22;14965;50.660;13.226;2023-09-30T00:52:36;16.60;99.90
27224;DHT22;14965;50.660;13.226;2023-09-30T00:55:04;16.60;99.90
27224;DHT22;14965;50.660;13.226;2023-09-30T00:57:33;16.60;99.90
27224;DHT22;14965;50.660;13.226;2023-09-30T01:00:00;16.60;99.90
27224;DHT22;14965;50.660;13.226;2023-09-30T01:02:27;16.60;99.90
27224;DHT22;14965;50.660;13.226;2023-09-30T01:04:54;16.50;99.90
27224;DHT22;14965;50.660;13.226;2023-09-30T01:07:21;16.40;99.90
27224;DHT22;14965;50.660;13.226;2023-09-30T01:09:47;16.40;99.90
27224;DHT22;14965;50.660;13.226;2023-09-30T01:12:13;16.30;99.90
27224;DHT22;14965;50.660;13.226;2023-09-30T01:14:40;16.20;99.90
27224;DHT22;14965;50.660;13.226;2023-09-30T01:17:06;16.10;99.90
27224;DHT22;14965;50.660;13.226;2023-09-30T01:19:32;16.00;99.90
27224;DHT22;14965;50.660;13.226;2023-09-30T01:21:59;15.80;99.90
27224;DHT22;14965;50.660;13.226;2023-09-30T01:24:25;15.70;99.90
27224;DHT22;14965;50.660;13.226;2023-09-30T01:26:52;15.50;99.90
27224;DHT22;14965;50.660;13.226;2023-09-30T01:29:17;15.40;99.90
27224;DHT22;14965;50.660;13.226;2023-09-30T01:31:43;15.40;99.90
27224;DHT22;14965;50.660;13.226;2023-09-30T01:34:09;15.20;99.90
27224;DHT22;14965;50.660;13.226;2023-09-30T01:36:35;15.10;99.90
27224;DHT22;14965;50.660;13.226;2023-09-30T01:39:03;15.00;99.90
27224;DHT22;14965;50.660;13.226;2023-09-30T01:41:29;15.00;99.90
27224;DHT22;14965;50.660;13.226;2023-09-30T01:43:55;14.90;99.90
27224;DHT22;14965;50.660;13.226;2023-09-30T01:46:21;14.80;99.90
27224;DHT22;14965;50.660;13.226;2023-09-30T01:48:47;14.60;99.90
27224;DHT22;14965;50.660;13.226;2023-09-30T01:51:13;14.60;99.90
27224;DHT22;14965;50.660;13.226;2023-09-30T01:53:39;14.60;99.90
27224;DHT22;14965;50.660;13.226;2023-09-30T01:56:07;14.50;99.90
27224;DHT22;14965;50.660;13.226;2023-09-30T01:58:33;14.40;99.90
27224;DHT22;14965;50.660;13.226;2023-09-30T02:01:02;14.40;99.90
27224;DHT22;14965;50.660;13.226;2023-09-30T02:03:28;14.30;99.90
27224;DHT22;14965;50.660;13.226;2023-09-30T02:05:54;14.30;99.90
27224;DHT22;14965;50.660;13.226;2023-09-30T02:08:20;14.10;99.90
27224;DHT22;14965;50.660;13.226;2023-09-30T02:10:46;14.00;99.90
27224;DHT22;14965;50.660;13.226;2023-09-30T02:13:13;14.00;99.90
27224;DHT22;14965;50.660;13.226;2023-09-30T02:15:40;13.90;99.90
27224;DHT22;14965;50.660;13.226;2023-09-30T02:18:06;13.80;99.90
27224;DHT22;14965;50.660;13.226;2023-09-30T02:20:32;13.70;99.90
27224;DHT22;14965;50.660;13.226;2023-09-30T02:22:57;13.60;99.90
27224;DHT22;14965;50.660;13.226;2023-09-30T02:25:23;13.70;99.90
27224;DHT22;14965;50.660;13.226;2023-09-30T02:27:50;13.60;99.90
27224;DHT22;14965;50.660;13.226;2023-09-30T02:30:17;13.60;99.90
27224;DHT22;14965;50.660;13.226;2023-09-30T02:32:43;13.60;99.90
27224;DHT22;14965;50.660;13.226;2023-09-30T02:35:09;13.50;99.90
27224;DHT22;14965;50.660;13.226;2023-09-30T02:37:35;13.60;99.90
27224;DHT22;14965;50.660;13.226;2023-09-30T02:40:02;13.60;99.90
27224;DHT22;14965;50.660;13.226;2023-09-30T02:42:29;13.50;99.90
27224;DHT22;14965;50.660;13.226;2023-09-30T02:44:55;13.50;99.90
27224;DHT22;14965;50.660;13.226;2023-09-30T02:47:22;13.50;99.90
27224;DHT22;14965;50.660;13.226;2023-09-30T02:49:48;13.40;99.90
27224;DHT22;14965;50.660;13.226;2023-09-30T02:52:14;13.40;99.90
27224;DHT22;14965;50.660;13.226;2023-09-30T02:54:39;13.30;99.90
27224;DHT22;14965;50.660;13.226;2023-09-30T02:57:05;13.30;99.90
27224;DHT22;14965;50.660;13.226;2023-09-30T02:59:31;13.40;99.90
27224;DHT22;14965;50.660;13.226;2023-09-30T03:01:58;13.40;99.90
27224;DHT22;14965;50.660;13.226;2023-09-30T03:04:25;13.40;99.90
27224;DHT22;14965;50.660;13.226;2023-09-30T03:06:51;13.40;99.90
27224;DHT22;14965;50.660;13.226;2023-09-30T03:09:17;13.40;99.90
27224;DHT22;14965;50.660;13.226;2023-09-30T03:11:43;13.30;99.90
27224;DHT22;14965;50.660;13.226;2023-09-30T03:14:09;13.30;99.90
27224;DHT22;14965;50.660;13.226;2023-09-30T03:16:36;13.30;99.90
27224;DHT22;14965;50.660;13.226;2023-09-30T03:19:02;13.30;99.90
27224;DHT22;14965;50.660;13.226;2023-09-30T03:21:29;13.30;99.90
27224;DHT22;14965;50.660;13.226;2023-09-30T03:23:55;13.30;99.90
27224;DHT22;14965;50.660;13.226;2023-09-30T03:26:21;13.30;99.90
27224;DHT22;14965;50.660;13.226;2023-09-30T03:28:47;13.30;99.90
27224;DHT22;14965;50.660;13.226;2023-09-30T03:31:13;13.30;99.90
27224;DHT22;14965;50.660;13.226;2023-09-30T03:33:44;13.20;99.90
27224;DHT22;14965;50.660;13.226;2023-09-30T03:36:10;13.20;99.90
27224;DHT22;14965;50.660;13.226;2023-09-30T03:38:37;13.10;99.90
27224;DHT22;14965;50.660;13.226;2023-09-30T03:41:03;13.10;99.90
27224;DHT22;14965;50.660;13.226;2023-09-30T03:43:29;13.00;99.90
27224;DHT22;14965;50.660;13.226;2023-09-30T03:45:55;13.00;99.90
27224;DHT22;14965;50.660;13.226;2023-09-30T03:48:21;13.00;99.90
27224;DHT22;14965;50.660;13.226;2023-09-30T03:50:47;13.00;99.90
27224;DHT22;14965;50.660;13.226;2023-09-30T03:53:13;12.90;99.90
27224;DHT22;14965;50.660;13.226;2023-09-30T03:55:40;12.90;99.90
27224;DHT22;14965;50.660;13.226;2023-09-30T03:58:06;12.90;99.90
27224;DHT22;14965;50.660;13.226;2023-09-30T04:00:32;12.80;99.90
27224;DHT22;14965;50.660;13.226;2023-09-30T04:02:58;12.70;99.90
27224;DHT22;14965;50.660;13.226;2023-09-30T04:05:24;12.70;99.90
27224;DHT22;14965;50.660;13.226;2023-09-30T04:07:50;12.70;99.90
27224;DHT22;14965;50.660;13.226;2023-09-30T04:10:17;12.70;99.90
27224;DHT22;14965;50.660;13.226;2023-09-30T04:12:44;12.70;99.90
27224;DHT22;14965;50.660;13.226;2023-09-30T04:15:10;12.70;99.90
27224;DHT22;14965;50.660;13.226;2023-09-30T04:17:36;12.60;99.90
27224;DHT22;14965;50.660;13.226;2023-09-30T04:20:02;12.60;99.90
27224;DHT22;14965;50.660;13.226;2023-09-30T04:22:29;12.50;99.90
27224;DHT22;14965;50.660;13.226;2023-09-30T04:24:55;12.50;99.90
27224;DHT22;14965;50.660;13.226;2023-09-30T04:27:21;12.50;99.90
27224;DHT22;14965;50.660;13.226;2023-09-30T04:29:48;12.50;99.90
27224;DHT22;14965;50.660;13.226;2023-09-30T04:32:14;12.50;99.90
27224;DHT22;14965;50.660;13.226;2023-09-30T04:34:40;12.50;99.90
27224;DHT22;14965;50.660;13.226;2023-09-30T04:37:06;12.50;99.90
27224;DHT22;14965;50.660;13.226;2023-09-30T04:39:32;12.50;99.90
27224;DHT22;14965;50.660;13.226;2023-09-30T04:41:58;12.50;99.90
27224;DHT22;14965;50.660;13.226;2023-09-30T04:44:24;12.50;99.90
27224;DHT22;14965;50.660;13.226;2023-09-30T04:46:51;12.60;99.90
27224;DHT22;14965;50.660;13.226;2023-09-30T04:49:17;12.50;99.90
27224;DHT22;14965;50.660;13.226;2023-09-30T04:51:43;12.50;99.90
27224;DHT22;14965;50.660;13.226;2023-09-30T04:54:09;12.50;99.90
27224;DHT22;14965;50.660;13.226;2023-09-30T04:56:35;12.50;99.90
27224;DHT22;14965;50.660;13.226;2023-09-30T04:59:01;12.50;99.90
27224;DHT22;14965;50.660;13.226;2023-09-30T05:01:28;12.50;99.90
27224;DHT22;14965;50.660;13.226;2023-09-30T05:03:55;12.50;99.90
27224;DHT22;14965;50.660;13.226;2023-09-30T05:06:21;12.40;99.90
27224;DHT22;14965;50.660;13.226;2023-09-30T05:08:47;12.50;99.90
27224;DHT22;14965;50.660;13.226;2023-09-30T05:11:13;12.50;99.90
27224;DHT22;14965;50.660;13.226;2023-09-30T05:13:39;12.50;99.90
27224;DHT22;14965;50.660;13.226;2023-09-30T05:16:05;12.50;99.90
27224;DHT22;14965;50.660;13.226;2023-09-30T05:18:31;12.50;99.90
27224;DHT22;14965;50.660;13.226;2023-09-30T05:20:58;12.50;99.90
27224;DHT22;14965;50.660;13.226;2023-09-30T05:23:24;12.40;99.90
27224;DHT22;14965;50.660;13.226;2023-09-30T05:25:50;12.40;99.90
27224;DHT22;14965;50.660;13.226;2023-09-30T05:28:16;12.40;99.90
27224;DHT22;14965;50.660;13.226;2023-09-30T05:30:42;12.40;99.90
27224;DHT22;14965;50.660;13.226;2023-09-30T05:33:08;12.30;99.90
27224;DHT22;14965;50.660;13.226;2023-09-30T05:35:34;12.40;99.90
27224;DHT22;14965;50.660;13.226;2023-09-30T05:38:02;12.40;99.90
27224;DHT22;14965;50.660;13.226;2023-09-30T05:40:28;12.40;99.90
27224;DHT22;14965;50.660;13.226;2023-09-30T05:42:54;12.40;99.90
27224;DHT22;14965;50.660;13.226;2023-09-30T05:45:22;12.50;99.90
27224;DHT22;14965;50.660;13.226;2023-09-30T05:47:48;12.50;99.90
27224;DHT22;14965;50.660;13.226;2023-09-30T05:50:14;12.40;99.90
27224;DHT22;14965;50.660;13.226;2023-09-30T05:52:40;12.30;99.90
27224;DHT22;14965;50.660;13.226;2023-09-30T05:55:08;12.40;99.90
27224;DHT22;14965;50.660;13.226;2023-09-30T05:57:34;12.40;99.90
27224;DHT22;14965;50.660;13.226;2023-09-30T06:00:00;12.50;99.90
27224;DHT22;14965;50.660;13.226;2023-09-30T06:02:26;12.40;99.90
27224;DHT22;14965;50.660;13.226;2023-09-30T06:04:52;12.40;99.90
27224;DHT22;14965;50.660;13.226;2023-09-30T06:07:18;12.30;99.90
27224;DHT22;14965;50.660;13.226;2023-09-30T06:09:44;12.40;99.90
27224;DHT22;14965;50.660;13.226;2023-09-30T06:12:11;12.40;99.90
27224;DHT22;14965;50.660;13.226;2023-09-30T06:14:37;12.50;99.90
27224;DHT22;14965;50.660;13.226;2023-09-30T06:17:03;12.50;99.90
27224;DHT22;14965;50.660;13.226;2023-09-30T06:19:29;12.50;99.90
27224;DHT22;14965;50.660;13.226;2023-09-30T06:21:55;12.60;99.90
27224;DHT22;14965;50.660;13.226;2023-09-30T06:24:21;12.60;99.90
27224;DHT22;14965;50.660;13.226;2023-09-30T06:26:47;12.50;99.90
27224;DHT22;14965;50.660;13.226;2023-09-30T06:29:14;12.50;99.90
27224;DHT22;14965;50.660;13.226;2023-09-30T06:31:40;12.40;99.90
27224;DHT22;14965;50.660;13.226;2023-09-30T06:34:06;12.50;99.90
27224;DHT22;14965;50.660;13.226;2023-09-30T06:36:32;12.40;99.90
27224;DHT22;14965;50.660;13.226;2023-09-30T06:38:58;12.50;99.90
27224;DHT22;14965;50.660;13.226;2023-09-30T06:41:24;12.50;99.90
27224;DHT22;14965;50.660;13.226;2023-09-30T06:43:50;12.60;99.90
27224;DHT22;14965;50.660;13.226;2023-09-30T06:46:18;12.80;99.90
27224;DHT22;14965;50.660;13.226;2023-09-30T06:48:44;12.80;99.90
27224;DHT22;14965;50.660;13.226;2023-09-30T06:51:13;12.90;99.90
27224;DHT22;14965;50.660;13.226;2023-09-30T06:53:39;13.00;99.90
27224;DHT22;14965;50.660;13.226;2023-09-30T06:56:06;13.00;99.90
27224;DHT22;14965;50.660;13.226;2023-09-30T06:58:32;13.00;99.90
27224;DHT22;14965;50.660;13.226;2023-09-30T07:00:58;13.10;99.90
27224;DHT22;14965;50.660;13.226;2023-09-30T07:03:25;13.10;99.90
27224;DHT22;14965;50.660;13.226;2023-09-30T07:05:51;13.20;99.90
27224;DHT22;14965;50.660;13.226;2023-09-30T07:08:17;13.40;99.90
27224;DHT22;14965;50.660;13.226;2023-09-30T07:10:44;13.70;99.90
27224;DHT22;14965;50.660;13.226;2023-09-30T07:13:10;13.90;99.90
27224;DHT22;14965;50.660;13.226;2023-09-30T07:15:36;13.80;99.90
27224;DHT22;14965;50.660;13.226;2023-09-30T07:18:02;13.80;99.90
27224;DHT22;14965;50.660;13.226;2023-09-30T07:20:30;13.90;99.90
27224;DHT22;14965;50.660;13.226;2023-09-30T07:22:56;14.00;99.90
27224;DHT22;14965;50.660;13.226;2023-09-30T07:25:22;14.00;99.90
27224;DHT22;14965;50.660;13.226;2023-09-30T07:27:48;13.90;99.90
27224;DHT22;14965;50.660;13.226;2023-09-30T07:30:14;13.80;99.90
27224;DHT22;14965;50.660;13.226;2023-09-30T07:32:41;13.60;99.90
27224;DHT22;14965;50.660;13.226;2023-09-30T07:35:08;13.50;99.90
27224;DHT22;14965;50.660;13.226;2023-09-30T07:37:36;13.50;99.90
27224;DHT22;14965;50.660;13.226;2023-09-30T07:40:02;13.70;99.90
27224;DHT22;14965;50.660;13.226;2023-09-30T07:42:29;13.80;99.90
27224;DHT22;14965;50.660;13.226;2023-09-30T07:44:55;13.90;99.90
27224;DHT22;14965;50.660;13.226;2023-09-30T07:47:21;14.00;99.90
27224;DHT22;14965;50.660;13.226;2023-09-30T07:49:46;14.20;99.90
27224;DHT22;14965;50.660;13.226;2023-09-30T07:52:12;14.30;99.90
27224;DHT22;14965;50.660;13.226;2023-09-30T07:54:40;14.30;99.90
27224;DHT22;14965;50.660;13.226;2023-09-30T07:57:06;14.20;99.90
27224;DHT22;14965;50.660;13.226;2023-09-30T07:59:32;14.00;99.90
27224;DHT22;14965;50.660;13.226;2023-09-30T08:01:57;14.00;99.90
27224;DHT22;14965;50.660;13.226;2023-09-30T08:04:23;14.00;99.90
27224;DHT22;14965;50.660;13.226;2023-09-30T08:06:49;13.90;99.90
27224;DHT22;14965;50.660;13.226;2023-09-30T08:09:15;13.90;99.90
27224;DHT22;14965;50.660;13.226;2023-09-30T08:11:43;13.90;99.90
27224;DHT22;14965;50.660;13.226;2023-09-30T08:14:09;13.90;99.90
27224;DHT22;14965;50.660;13.226;2023-09-30T08:16:35;13.90;99.90
27224;DHT22;14965;50.660;13.226;2023-09-30T08:19:01;14.10;99.90
27224;DHT22;14965;50.660;13.226;2023-09-30T08:21:27;14.20;99.90
27224;DHT22;14965;50.660;13.226;2023-09-30T08:23:53;14.20;99.90
27224;DHT22;14965;50.660;13.226;2023-09-30T08:26:19;14.20;99.90
27224;DHT22;14965;50.660;13.226;2023-09-30T08:28:46;14.30;99.90
27224;DHT22;14965;50.660;13.226;2023-09-30T08:31:13;14.30;99.90
27224;DHT22;14965;50.660;13.226;2023-09-30T08:33:38;14.30;99.90
27224;DHT22;14965;50.660;13.226;2023-09-30T08:36:05;14.30;99.90
27224;DHT22;14965;50.660;13.226;2023-09-30T08:38:31;14.30;99.90
27224;DHT22;14965;50.660;13.226;2023-09-30T08:40:58;14.20;99.90
27224;DHT22;14965;50.660;13.226;2023-09-30T08:43:25;14.20;99.90
27224;DHT22;14965;50.660;13.226;2023-09-30T08:45:54;14.30;99.90
27224;DHT22;14965;50.660;13.226;2023-09-30T08:48:20;14.50;99.90
27224;DHT22;14965;50.660;13.226;2023-09-30T08:50:48;14.70;99.90
27224;DHT22;14965;50.660;13.226;2023-09-30T08:53:18;14.90;99.90
27224;DHT22;14965;50.660;13.226;2023-09-30T08:55:46;14.90;99.90
27224;DHT22;14965;50.660;13.226;2023-09-30T08:58:12;15.00;99.90
27224;DHT22;14965;50.660;13.226;2023-09-30T09:00:39;15.10;99.90
27224;DHT22;14965;50.660;13.226;2023-09-30T09:03:07;15.00;99.90
27224;DHT22;14965;50.660;13.226;2023-09-30T09:05:33;14.90;99.90
27224;DHT22;14965;50.660;13.226;2023-09-30T09:07:59;14.90;99.90
27224;DHT22;14965;50.660;13.226;2023-09-30T09:10:25;14.90;99.90
27224;DHT22;14965;50.660;13.226;2023-09-30T09:12:55;15.00;99.90
27224;DHT22;14965;50.660;13.226;2023-09-30T09:15:24;15.00;99.90
27224;DHT22;14965;50.660;13.226;2023-09-30T09:17:52;15.10;99.90
27224;DHT22;14965;50.660;13.226;2023-09-30T09:20:22;15.30;99.90
27224;DHT22;14965;50.660;13.226;2023-09-30T09:22:50;15.10;99.90
27224;DHT22;14965;50.660;13.226;2023-09-30T09:25:18;15.10;99.90
27224;DHT22;14965;50.660;13.226;2023-09-30T09:27:44;15.10;99.90
27224;DHT22;14965;50.660;13.226;2023-09-30T09:30:15;15.10;99.90
27224;DHT22;14965;50.660;13.226;2023-09-30T09:32:52;15.10;99.90
27224;DHT22;14965;50.660;13.226;2023-09-30T09:35:21;15.00;99.90
27224;DHT22;14965;50.660;13.226;2023-09-30T09:37:55;15.10;99.90
27224;DHT22;14965;50.660;13.226;2023-09-30T09:40:22;15.10;99.90
27224;DHT22;14965;50.660;13.226;2023-09-30T09:42:50;15.30;99.90
27224;DHT22;14965;50.660;13.226;2023-09-30T09:45:17;15.30;99.90
27224;DHT22;14965;50.660;13.226;2023-09-30T09:47:44;15.30;99.90
27224;DHT22;14965;50.660;13.226;2023-09-30T09:50:10;15.30;99.90
27224;DHT22;14965;50.660;13.226;2023-09-30T09:52:41;15.30;99.90
27224;DHT22;14965;50.660;13.226;2023-09-30T09:55:07;15.10;99.90
27224;DHT22;14965;50.660;13.226;2023-09-30T09:57:36;15.00;99.90
27224;DHT22;14965;50.660;13.226;2023-09-30T10:00:03;15.00;99.90
27224;DHT22;14965;50.660;13.226;2023-09-30T10:02:30;15.10;99.90
27224;DHT22;14965;50.660;13.226;2023-09-30T10:04:58;15.10;99.90
27224;DHT22;14965;50.660;13.226;2023-09-30T10:07:27;15.00;99.90
27224;DHT22;14965;50.660;13.226;2023-09-30T10:10:02;15.10;99.90
27224;DHT22;14965;50.660;13.226;2023-09-30T10:12:36;15.10;99.90
27224;DHT22;14965;50.660;13.226;2023-09-30T10:15:39;15.10;99.90
27224;DHT22;14965;50.660;13.226;2023-09-30T10:18:06;15.10;99.90
27224;DHT22;14965;50.660;13.226;2023-09-30T10:20:34;15.10;99.90
27224;DHT22;14965;50.660;13.226;2023-09-30T10:23:24;15.00;99.90
27224;DHT22;14965;50.660;13.226;2023-09-30T10:25:53;14.90;99.90
27224;DHT22;14965;50.660;13.226;2023-09-30T10:28:39;14.80;99.90
27224;DHT22;14965;50.660;13.226;2023-09-30T10:31:11;14.90;99.90
27224;DHT22;14965;50.660;13.226;2023-09-30T10:36:48;14.80;99.90
27224;DHT22;14965;50.660;13.226;2023-09-30T10:39:15;14.70;99.90
27224;DHT22;14965;50.660;13.226;2023-09-30T10:42:46;14.70;99.90
27224;DHT22;14965;50.660;13.226;2023-09-30T10:45:43;14.80;99.90
27224;DHT22;14965;50.660;13.226;2023-09-30T10:48:35;15.20;99.90
27224;DHT22;14965;50.660;13.226;2023-09-30T10:51:13;15.40;99.90
27224;DHT22;14965;50.660;13.226;2023-09-30T10:53:45;15.60;99.90
27224;DHT22;14965;50.660;13.226;2023-09-30T10:56:12;15.90;99.90
27224;DHT22;14965;50.660;13.226;2023-09-30T10:58:42;16.00;99.90
27224;DHT22;14965;50.660;13.226;2023-09-30T11:01:09;15.90;99.90
27224;DHT22;14965;50.660;13.226;2023-09-30T11:03:35;15.80;99.90
27224;DHT22;14965;50.660;13.226;2023-09-30T11:06:02;16.00;99.90
27224;DHT22;14965;50.660;13.226;2023-09-30T11:08:29;16.10;99.90
27224;DHT22;14965;50.660;13.226;2023-09-30T11:10:55;15.90;99.90
27224;DHT22;14965;50.660;13.226;2023-09-30T11:13:22;15.90;99.90
27224;DHT22;14965;50.660;13.226;2023-09-30T11:15:59;16.10;99.90
27224;DHT22;14965;50.660;13.226;2023-09-30T11:18:26;16.10;99.90
27224;DHT22;14965;50.660;13.226;2023-09-30T11:21:03;16.10;99.90
27224;DHT22;14965;50.660;13.226;2023-09-30T11:23:33;16.20;99.90
27224;DHT22;14965;50.660;13.226;2023-09-30T11:25:59;16.20;99.90
27224;DHT22;14965;50.660;13.226;2023-09-30T11:28:34;16.40;99.90
27224;DHT22;14965;50.660;13.226;2023-09-30T11:31:03;16.40;99.90
27224;DHT22;14965;50.660;13.226;2023-09-30T11:33:29;16.60;99.90
27224;DHT22;14965;50.660;13.226;2023-09-30T11:35:57;16.80;99.90
27224;DHT22;14965;50.660;13.226;2023-09-30T11:38:25;16.80;99.90
27224;DHT22;14965;50.660;13.226;2023-09-30T11:40:59;16.70;99.90
27224;DHT22;14965;50.660;13.226;2023-09-30T11:43:25;16.80;99.90
27224;DHT22;14965;50.660;13.226;2023-09-30T11:45:51;17.00;99.90
27224;DHT22;14965;50.660;13.226;2023-09-30T11:48:20;17.00;99.90
27224;DHT22;14965;50.660;13.226;2023-09-30T11:50:47;16.80;99.90
27224;DHT22;14965;50.660;13.226;2023-09-30T11:53:16;16.70;99.90
27224;DHT22;14965;50.660;13.226;2023-09-30T11:55:42;16.80;99.90
27224;DHT22;14965;50.660;13.226;2023-09-30T11:58:08;16.80;99.90
27224;DHT22;14965;50.660;13.226;2023-09-30T12:00:34;16.90;99.90
27224;DHT22;14965;50.660;13.226;2023-09-30T12:03:00;16.90;99.90
27224;DHT22;14965;50.660;13.226;2023-09-30T12:05:27;16.80;99.90
27224;DHT22;14965;50.660;13.226;2023-09-30T12:07:53;16.80;99.90
27224;DHT22;14965;50.660;13.226;2023-09-30T12:10:19;16.70;99.90
27224;DHT22;14965;50.660;13.226;2023-09-30T12:12:45;16.50;99.90
27224;DHT22;14965;50.660;13.226;2023-09-30T12:15:11;16.50;99.90
27224;DHT22;14965;50.660;13.226;2023-09-30T12:17:36;16.40;99.90
27224;DHT22;14965;50.660;13.226;2023-09-30T12:20:03;16.30;99.90
27224;DHT22;14965;50.660;13.226;2023-09-30T12:22:31;16.20;99.90
27224;DHT22;14965;50.660;13.226;2023-09-30T12:24:57;16.10;99.90
27224;DHT22;14965;50.660;13.226;2023-09-30T12:27:23;16.00;99.90
27224;DHT22;14965;50.660;13.226;2023-09-30T12:29:49;16.00;99.90
27224;DHT22;14965;50.660;13.226;2023-09-30T12:32:15;16.10;99.90
27224;DHT22;14965;50.660;13.226;2023-09-30T12:34:40;16.10;99.90
27224;DHT22;14965;50.660;13.226;2023-09-30T12:37:06;16.00;99.90
27224;DHT22;14965;50.660;13.226;2023-09-30T12:39:34;16.00;99.90
27224;DHT22;14965;50.660;13.226;2023-09-30T12:42:00;15.90;99.90
27224;DHT22;14965;50.660;13.226;2023-09-30T12:44:26;15.80;99.90
27224;DHT22;14965;50.660;13.226;2023-09-30T12:46:52;15.70;99.90
27224;DHT22;14965;50.660;13.226;2023-09-30T12:49:17;15.60;99.90
27224;DHT22;14965;50.660;13.226;2023-09-30T12:51:43;15.50;99.90
27224;DHT22;14965;50.660;13.226;2023-09-30T12:54:09;15.50;99.90
27224;DHT22;14965;50.660;13.226;2023-09-30T12:56:37;15.60;99.90
27224;DHT22;14965;50.660;13.226;2023-09-30T12:59:03;15.70;99.90
27224;DHT22;14965;50.660;13.226;2023-09-30T13:01:28;15.70;99.90
27224;DHT22;14965;50.660;13.226;2023-09-30T13:03:54;15.90;99.90
27224;DHT22;14965;50.660;13.226;2023-09-30T13:06:20;15.90;99.90
27224;DHT22;14965;50.660;13.226;2023-09-30T13:08:46;15.90;99.90
27224;DHT22;14965;50.660;13.226;2023-09-30T13:11:13;15.90;99.90
27224;DHT22;14965;50.660;13.226;2023-09-30T13:13:41;16.00;99.90
27224;DHT22;14965;50.660;13.226;2023-09-30T13:16:10;16.00;99.90
27224;DHT22;14965;50.660;13.226;2023-09-30T13:18:37;15.90;99.90
27224;DHT22;14965;50.660;13.226;2023-09-30T13:21:03;16.00;99.90
27224;DHT22;14965;50.660;13.226;2023-09-30T13:23:29;16.00;99.90
27224;DHT22;14965;50.660;13.226;2023-09-30T13:25:55;16.00;99.90
27224;DHT22;14965;50.660;13.226;2023-09-30T13:28:20;15.90;99.90
27224;DHT22;14965;50.660;13.226;2023-09-30T13:30:48;16.00;99.90
27224;DHT22;14965;50.660;13.226;2023-09-30T13:33:14;16.00;99.90
27224;DHT22;14965;50.660;13.226;2023-09-30T13:35:40;16.10;99.90
27224;DHT22;14965;50.660;13.226;2023-09-30T13:38:06;16.10;99.90
27224;DHT22;14965;50.660;13.226;2023-09-30T13:40:32;16.00;99.90
27224;DHT22;14965;50.660;13.226;2023-09-30T13:42:58;15.90;99.90
27224;DHT22;14965;50.660;13.226;2023-09-30T13:45:24;15.80;99.90
27224;DHT22;14965;50.660;13.226;2023-09-30T13:47:51;15.70;99.90
27224;DHT22;14965;50.660;13.226;2023-09-30T13:50:17;15.80;99.90
27224;DHT22;14965;50.660;13.226;2023-09-30T13:52:43;15.70;99.90
27224;DHT22;14965;50.660;13.226;2023-09-30T13:55:09;15.70;99.90
27224;DHT22;14965;50.660;13.226;2023-09-30T13:57:35;15.70;99.90
27224;DHT22;14965;50.660;13.226;2023-09-30T14:00:01;15.80;99.90
27224;DHT22;14965;50.660;13.226;2023-09-30T14:02:28;15.70;99.90
27224;DHT22;14965;50.660;13.226;2023-09-30T14:04:55;15.70;99.90
27224;DHT22;14965;50.660;13.226;2023-09-30T14:07:21;15.60;99.90
27224;DHT22;14965;50.660;13.226;2023-09-30T14:09:47;15.60;99.90
27224;DHT22;14965;50.660;13.226;2023-09-30T14:12:13;15.50;99.90
27224;DHT22;14965;50.660;13.226;2023-09-30T14:14:39;15.60;99.90
27224;DHT22;14965;50.660;13.226;2023-09-30T14:17:05;15.60;99.90
27224;DHT22;14965;50.660;13.226;2023-09-30T14:19:30;15.70;99.90
27224;DHT22;14965;50.660;13.226;2023-09-30T14:21:58;15.70;99.90
27224;DHT22;14965;50.660;13.226;2023-09-30T14:24:24;15.70;99.90
27224;DHT22;14965;50.660;13.226;2023-09-30T14:26:50;15.70;99.90
27224;DHT22;14965;50.660;13.226;2023-09-30T14:29:16;15.70;99.90
27224;DHT22;14965;50.660;13.226;2023-09-30T14:31:41;15.60;99.90
27224;DHT22;14965;50.660;13.226;2023-09-30T14:34:07;15.60;99.90
27224;DHT22;14965;50.660;13.226;2023-09-30T14:36:33;15.60;99.90
27224;DHT22;14965;50.660;13.226;2023-09-30T14:39:01;15.60;99.90
27224;DHT22;14965;50.660;13.226;2023-09-30T14:41:27;15.60;99.90
27224;DHT22;14965;50.660;13.226;2023-09-30T14:43:53;15.70;99.90
27224;DHT22;14965;50.660;13.226;2023-09-30T14:46:18;15.70;99.90
27224;DHT22;14965;50.660;13.226;2023-09-30T14:48:44;15.70;99.90
27224;DHT22;14965;50.660;13.226;2023-09-30T14:51:10;15.80;99.90
27224;DHT22;14965;50.660;13.226;2023-09-30T14:53:36;15.70;99.90
27224;DHT22;14965;50.660;13.226;2023-09-30T14:56:13;15.80;99.90
27224;DHT22;14965;50.660;13.226;2023-09-30T14:58:40;15.60;99.90
27224;DHT22;14965;50.660;13.226;2023-09-30T15:01:08;15.50;99.90
27224;DHT22;14965;50.660;13.226;2023-09-30T15:03:34;15.40;99.90
27224;DHT22;14965;50.660;13.226;2023-09-30T15:06:00;15.40;99.90
27224;DHT22;14965;50.660;13.226;2023-09-30T15:08:26;15.40;99.90
27224;DHT22;14965;50.660;13.226;2023-09-30T15:10:52;15.40;99.90
27224;DHT22;14965;50.660;13.226;2023-09-30T15:13:19;15.30;99.90
27224;DHT22;14965;50.660;13.226;2023-09-30T15:15:45;15.30;99.90
27224;DHT22;14965;50.660;13.226;2023-09-30T15:18:11;15.30;99.90